Time;durP1;ratioP1;P1;durP2;ratioP2;P2;SDS_P1;SDS_P2;PMS_P1;PMS_P2;Temp;Humidity;BMP_temperature;BMP_pressure;BME280_temperature;BME280_humidity;BME280_pressure;Samples;Min_cycle;Max_cycle;Signal;HPM_P1;HPM_P2
2022/11/09 00:01:18;;;;;;;12.53;10.03;;;12.60;99.90;;;;;;5076623;28;20448;-85
2022/11/09 00:03:46;;;;;;;12.80;9.67;;;12.60;99.90;;;;;;5078841;28;20448;-84
2022/11/09 00:06:15;;;;;;;12.87;9.50;;;12.50;99.90;;;;;;5086919;28;20454;-84
2022/11/09 00:08:42;;;;;;;11.67;9.67;;;12.60;99.90;;;;;;5084281;28;20479;-85
2022/11/09 00:11:11;;;;;;;11.77;9.33;;;12.50;99.90;;;;;;5089547;28;20448;-83
2022/11/09 00:13:39;;;;;;;11.73;10.40;;;12.60;99.90;;;;;;5090646;28;20440;-84
2022/11/09 00:16:07;;;;;;;12.80;10.70;;;12.60;99.90;;;;;;5087199;28;20485;-87
2022/11/09 00:18:35;;;;;;;13.47;10.63;;;12.60;99.90;;;;;;5086415;28;20472;-83
2022/11/09 00:21:07;;;;;;;12.57;11.40;;;12.60;99.90;;;;;;5092655;28;20444;-83
2022/11/09 00:23:38;;;;;;;12.20;10.20;;;12.60;99.90;;;;;;5086093;28;20444;-85
2022/11/09 00:26:06;;;;;;;10.67;9.37;;;12.60;99.90;;;;;;5086339;28;20444;-84
2022/11/09 00:44:48;;;;;;;;;;;;;;;;;;;;;
2022/11/09 00:58:09;;;;;;;12.30;11.07;;;12.60;99.90;;;;;;4836189;29;20215;-85
2022/11/09 01:00:36;;;;;;;11.77;9.63;;;12.60;99.90;;;;;;4994836;28;20207;-85
2022/11/09 01:03:03;;;;;;;13.50;10.90;;;12.60;99.90;;;;;;5010995;28;20808;-85
2022/11/09 01:05:30;;;;;;;13.93;10.20;;;12.60;99.90;;;;;;5019315;28;20443;-85
2022/11/09 01:07:57;;;;;;;11.73;10.53;;;12.60;99.90;;;;;;5029873;28;20470;-85
2022/11/09 01:10:33;;;;;;;14.77;11.90;;;12.60;99.90;;;;;;5027486;28;20454;-85
2022/11/09 01:13:00;;;;;;;11.33;10.17;;;12.60;99.90;;;;;;5020893;28;20958;-85
2022/11/09 01:15:28;;;;;;;14.23;10.70;;;12.60;99.90;;;;;;5016211;28;20489;-85
2022/11/09 01:17:55;;;;;;;15.30;12.73;;;12.60;99.90;;;;;;5015841;28;20557;-85
2022/11/09 01:20:21;;;;;;;13.23;11.30;;;12.60;99.90;;;;;;5021678;28;20455;-85
2022/11/09 01:22:48;;;;;;;16.23;12.00;;;12.60;99.90;;;;;;5015996;28;20458;-85
2022/11/09 01:25:15;;;;;;;12.47;11.17;;;12.50;99.90;;;;;;5016484;28;20450;-85
2022/11/09 01:27:42;;;;;;;13.30;10.10;;;12.50;99.90;;;;;;5015539;28;20470;-85
2022/11/09 01:30:09;;;;;;;12.03;10.53;;;12.40;99.90;;;;;;5015738;28;20447;-85
2022/11/09 01:32:37;;;;;;;11.80;10.57;;;12.40;99.90;;;;;;5015717;28;20477;-85
2022/11/09 01:35:04;;;;;;;11.63;10.00;;;12.40;99.90;;;;;;5015059;28;20493;-85
2022/11/09 01:37:31;;;;;;;14.33;11.17;;;12.40;99.90;;;;;;5015146;28;20461;-85
2022/11/09 01:39:58;;;;;;;12.20;10.13;;;12.40;99.90;;;;;;5015601;28;20446;-85
2022/11/09 01:42:26;;;;;;;12.63;11.13;;;12.40;99.90;;;;;;5015145;28;20448;-85
2022/11/09 01:45:21;;;;;;;14.97;9.80;;;12.40;99.90;;;;;;5015533;28;20449;-85
2022/11/09 01:47:54;;;;;;;13.60;11.50;;;12.40;99.90;;;;;;5015204;28;20837;-85
2022/11/09 02:04:08;;;;;;;13.00;10.73;;;12.40;99.90;;;;;;4803073;29;20562;-85
2022/11/09 02:06:36;;;;;;;12.73;8.90;;;12.30;99.90;;;;;;4873755;28;21033;-85
2022/11/09 02:09:10;;;;;;;12.20;9.97;;;12.40;99.90;;;;;;5014791;28;20537;-85
2022/11/09 02:11:38;;;;;;;12.40;9.90;;;12.30;99.90;;;;;;5014863;28;20462;-85
2022/11/09 02:14:06;;;;;;;11.10;9.93;;;12.40;99.90;;;;;;5014580;28;20458;-85
2022/11/09 02:16:35;;;;;;;10.23;9.30;;;12.40;99.90;;;;;;5013831;28;20513;-85
2022/11/09 02:19:05;;;;;;;10.97;9.70;;;12.50;99.90;;;;;;5014395;28;20483;-85
2022/11/09 02:21:38;;;;;;;13.33;10.20;;;12.50;99.90;;;;;;5027056;28;20451;-85
2022/11/09 02:24:06;;;;;;;12.13;10.30;;;12.50;99.90;;;;;;5028988;28;20454;-85
2022/11/09 02:26:38;;;;;;;14.10;12.00;;;12.60;99.90;;;;;;5037493;28;20451;-85
2022/11/09 02:29:08;;;;;;;17.20;12.07;;;12.50;99.90;;;;;;5039704;28;20476;-85
2022/11/09 02:31:40;;;;;;;12.70;11.40;;;12.50;99.90;;;;;;5029894;28;20453;-85
2022/11/09 02:34:10;;;;;;;13.97;11.77;;;12.50;99.90;;;;;;5015360;28;20457;-85
2022/11/09 02:36:39;;;;;;;13.80;10.07;;;12.50;99.90;;;;;;5013873;28;20501;-85
2022/11/09 02:39:06;;;;;;;13.60;10.60;;;12.50;99.90;;;;;;5013820;28;20478;-85
2022/11/09 02:41:41;;;;;;;12.03;10.83;;;12.50;99.90;;;;;;5013857;28;20457;-85
2022/11/09 02:44:08;;;;;;;11.57;10.00;;;12.50;99.90;;;;;;5014448;28;20485;-85
2022/11/09 02:46:36;;;;;;;13.43;9.87;;;12.60;99.90;;;;;;5024615;28;20438;-85
2022/11/09 02:49:04;;;;;;;11.80;9.43;;;12.60;99.90;;;;;;5037563;28;20462;-85
2022/11/09 02:51:31;;;;;;;12.07;10.93;;;12.60;99.90;;;;;;5014526;28;20469;-85
2022/11/09 02:53:59;;;;;;;10.87;9.77;;;12.60;99.90;;;;;;5013683;28;20529;-85
2022/11/09 02:56:26;;;;;;;11.00;9.83;;;12.70;99.90;;;;;;5013420;28;20483;-85
2022/11/09 02:58:52;;;;;;;12.03;10.27;;;12.70;99.90;;;;;;5013263;28;20470;-85
2022/11/09 03:01:19;;;;;;;10.53;9.47;;;12.80;99.90;;;;;;5013528;28;20439;-85
2022/11/09 03:03:46;;;;;;;11.10;9.97;;;12.80;99.90;;;;;;5013504;28;20446;-85
2022/11/09 03:06:13;;;;;;;9.40;8.50;;;12.90;99.90;;;;;;5014071;28;20477;-85
2022/11/09 03:08:39;;;;;;;9.67;8.67;;;12.80;99.90;;;;;;5014564;28;20492;-85
2022/11/09 03:11:08;;;;;;;9.90;9.00;;;12.80;99.90;;;;;;5027555;28;20454;-85
2022/11/09 03:13:35;;;;;;;12.43;10.17;;;12.80;99.90;;;;;;5014921;28;20459;-83
2022/11/09 03:16:05;;;;;;;11.30;9.63;;;12.70;99.90;;;;;;5014724;28;20882;-83
2022/11/09 03:18:32;;;;;;;11.20;9.10;;;12.70;99.90;;;;;;5015122;28;20466;-83
2022/11/09 03:21:01;;;;;;;11.30;10.10;;;12.70;99.90;;;;;;5014082;28;20825;-85
2022/11/09 03:23:30;;;;;;;14.03;12.50;;;12.60;99.90;;;;;;5014185;28;20451;-85
2022/11/09 03:25:57;;;;;;;14.60;11.73;;;12.50;99.90;;;;;;5013618;28;20823;-85
2022/11/09 03:28:31;;;;;;;13.00;11.80;;;12.40;99.90;;;;;;5013059;28;20834;-85
2022/11/09 03:30:59;;;;;;;12.37;10.97;;;12.30;99.90;;;;;;5028355;28;20430;-85
2022/11/09 03:33:26;;;;;;;12.97;11.50;;;12.20;99.90;;;;;;5035333;28;20461;-85
2022/11/09 03:35:53;;;;;;;14.47;11.70;;;12.20;99.90;;;;;;5013509;28;20487;-85
2022/11/09 03:38:20;;;;;;;15.60;12.53;;;12.20;99.90;;;;;;5012806;28;20497;-85
2022/11/09 03:40:46;;;;;;;13.17;11.23;;;12.30;99.90;;;;;;5012824;28;20454;-85
2022/11/09 03:43:13;;;;;;;14.93;11.10;;;12.20;99.90;;;;;;5013093;28;20451;-85
2022/11/09 03:45:41;;;;;;;11.27;10.17;;;12.10;99.90;;;;;;5018605;28;20442;-83
2022/11/09 03:48:08;;;;;;;14.07;11.63;;;12.00;99.90;;;;;;5029346;28;21018;-83
2022/11/09 03:50:39;;;;;;;11.03;9.93;;;11.90;99.90;;;;;;5024767;28;20465;-83
2022/11/09 03:53:06;;;;;;;14.90;11.77;;;11.90;99.90;;;;;;5013973;28;20454;-83
2022/11/09 03:55:33;;;;;;;12.10;10.80;;;11.80;99.90;;;;;;5013083;28;20485;-83
2022/11/09 03:58:00;;;;;;;12.83;11.57;;;11.70;99.90;;;;;;5013499;28;21059;-83
2022/11/09 04:00:27;;;;;;;17.47;11.20;;;11.70;99.90;;;;;;5013015;28;20445;-83
2022/11/09 04:02:55;;;;;;;14.30;10.63;;;11.70;99.90;;;;;;5013033;28;20454;-85
2022/11/09 04:05:22;;;;;;;12.10;10.60;;;11.80;99.90;;;;;;5012893;28;20454;-85
2022/11/09 04:07:49;;;;;;;13.20;11.90;;;11.80;99.90;;;;;;5012759;28;20471;-85
2022/11/09 04:10:16;;;;;;;11.30;10.20;;;11.90;99.90;;;;;;5012662;28;20451;-85
2022/11/09 04:12:43;;;;;;;12.83;11.57;;;11.80;99.90;;;;;;5013114;28;20455;-85
2022/11/09 04:15:11;;;;;;;12.30;10.40;;;11.90;99.90;;;;;;5012819;28;20829;-85
2022/11/09 04:17:37;;;;;;;13.97;11.67;;;11.90;99.90;;;;;;5012530;28;20473;-85
2022/11/09 04:20:07;;;;;;;14.17;11.23;;;11.90;99.90;;;;;;5028113;28;20456;-85
2022/11/09 04:22:34;;;;;;;13.93;12.47;;;11.90;99.90;;;;;;5032139;28;20446;-85
2022/11/09 04:25:01;;;;;;;14.07;11.20;;;11.90;99.90;;;;;;5032191;28;20449;-85
2022/11/09 04:27:29;;;;;;;12.90;11.50;;;11.80;99.90;;;;;;5031968;28;20816;-85
2022/11/09 04:29:56;;;;;;;13.90;12.60;;;11.80;99.90;;;;;;5032244;28;20492;-85
2022/11/09 04:32:23;;;;;;;14.03;11.23;;;11.80;99.90;;;;;;5031742;28;20457;-85
2022/11/09 04:34:49;;;;;;;14.20;12.53;;;11.80;99.90;;;;;;5032576;28;20450;-85
2022/11/09 04:37:18;;;;;;;14.37;11.50;;;11.80;99.90;;;;;;5052270;28;20525;-85
2022/11/09 04:39:47;;;;;;;17.70;13.80;;;11.80;99.90;;;;;;5052334;28;20463;-85
2022/11/09 04:42:14;;;;;;;17.03;15.23;;;11.80;99.90;;;;;;5048281;28;20430;-86
2022/11/09 04:44:40;;;;;;;16.70;14.93;;;11.80;99.90;;;;;;5059754;28;20926;-85
2022/11/09 04:47:07;;;;;;;18.37;15.70;;;11.70;99.90;;;;;;5047551;28;20445;-85
2022/11/09 04:49:34;;;;;;;17.00;14.00;;;11.80;99.90;;;;;;5050941;28;20469;-85
2022/11/09 04:52:00;;;;;;;16.30;13.17;;;11.70;99.90;;;;;;5036686;28;20459;-85
2022/11/09 04:54:29;;;;;;;21.17;12.73;;;11.60;99.90;;;;;;5036148;28;20445;-85
2022/11/09 04:56:55;;;;;;;18.33;12.60;;;11.60;99.90;;;;;;5035800;28;20473;-85
2022/11/09 04:59:22;;;;;;;14.40;12.53;;;11.60;99.90;;;;;;5035716;28;20471;-85
2022/11/09 05:01:49;;;;;;;14.10;12.70;;;11.50;99.90;;;;;;5035789;28;20965;-85
2022/11/09 05:04:15;;;;;;;12.53;11.27;;;11.50;99.90;;;;;;5040635;28;20453;-85
2022/11/09 05:06:42;;;;;;;16.30;13.90;;;11.50;99.90;;;;;;5039639;28;20450;-85
2022/11/09 05:09:09;;;;;;;14.30;11.87;;;11.50;99.90;;;;;;5035947;28;20470;-85
2022/11/09 05:11:37;;;;;;;13.77;10.73;;;11.50;99.90;;;;;;5035569;28;20450;-86
2022/11/09 05:14:04;;;;;;;12.03;10.77;;;11.40;99.90;;;;;;5035609;28;20446;-85
2022/11/09 05:16:31;;;;;;;11.60;10.43;;;11.40;99.90;;;;;;5035154;28;20483;-86
2022/11/09 05:18:58;;;;;;;14.17;12.80;;;11.40;99.90;;;;;;5035088;28;20904;-85
2022/11/09 05:21:24;;;;;;;12.40;11.10;;;11.40;99.90;;;;;;5035175;28;20454;-86
2022/11/09 05:23:59;;;;;;;14.97;13.43;;;11.40;99.90;;;;;;5035851;28;20520;-86
2022/11/09 05:26:28;;;;;;;13.63;12.30;;;11.40;99.90;;;;;;5046081;28;20436;-86
2022/11/09 05:28:57;;;;;;;13.80;11.40;;;11.40;99.90;;;;;;5046144;28;20445;-85
2022/11/09 05:31:24;;;;;;;13.53;12.10;;;11.40;99.90;;;;;;5030838;28;20533;-86
2022/11/09 05:33:52;;;;;;;13.70;11.30;;;11.40;99.90;;;;;;5035776;28;20465;-86
2022/11/09 05:36:19;;;;;;;15.60;11.97;;;11.30;99.90;;;;;;5018273;28;20493;-85
2022/11/09 05:38:47;;;;;;;14.43;11.60;;;11.30;99.90;;;;;;5022980;28;20825;-85
2022/11/09 05:41:14;;;;;;;17.43;12.27;;;11.30;99.90;;;;;;5030458;28;20825;-86
2022/11/09 05:43:40;;;;;;;16.40;12.13;;;11.30;99.90;;;;;;5027435;28;21209;-85
2022/11/09 05:46:09;;;;;;;13.70;11.60;;;11.30;99.90;;;;;;5030904;28;20430;-85
2022/11/09 05:48:35;;;;;;;11.97;10.67;;;11.30;99.90;;;;;;5031419;28;20476;-85
2022/11/09 05:51:03;;;;;;;14.33;10.17;;;11.20;99.90;;;;;;5032385;28;20461;-85
2022/11/09 05:53:30;;;;;;;13.43;10.80;;;11.30;99.90;;;;;;5022104;28;21027;-85
2022/11/09 05:56:00;;;;;;;10.23;9.20;;;11.20;99.90;;;;;;5020201;28;20486;-88
2022/11/09 05:58:29;;;;;;;12.33;10.93;;;11.20;99.90;;;;;;5018803;28;20458;-84
2022/11/09 06:00:56;;;;;;;12.33;10.20;;;11.20;99.90;;;;;;5022181;28;20442;-83
2022/11/09 06:03:24;;;;;;;17.00;10.23;;;11.20;99.90;;;;;;5015803;28;20443;-84
2022/11/09 06:05:50;;;;;;;12.97;11.07;;;11.20;99.90;;;;;;5019965;28;20443;-84
2022/11/09 06:08:17;;;;;;;13.10;11.70;;;11.20;99.90;;;;;;5023644;28;20470;-84
2022/11/09 06:10:44;;;;;;;14.73;12.23;;;11.20;99.90;;;;;;5054740;28;20438;-84
2022/11/09 06:13:10;;;;;;;17.20;14.17;;;11.20;99.90;;;;;;5056329;28;20509;-84
2022/11/09 06:15:37;;;;;;;20.17;14.23;;;11.20;99.90;;;;;;5036554;28;20453;-84
2022/11/09 06:18:04;;;;;;;18.00;13.47;;;11.20;99.90;;;;;;5037426;28;20472;-84
2022/11/09 06:20:33;;;;;;;15.30;12.97;;;11.20;99.90;;;;;;5033741;28;20441;-84
2022/11/09 06:23:01;;;;;;;18.30;14.27;;;11.20;99.90;;;;;;5036072;28;20476;-84
2022/11/09 06:25:28;;;;;;;16.87;13.40;;;11.20;99.90;;;;;;5036071;28;20460;-84
2022/11/09 06:27:57;;;;;;;18.97;13.60;;;11.30;99.90;;;;;;5037277;28;20539;-84
2022/11/09 06:30:23;;;;;;;22.10;15.90;;;11.20;99.90;;;;;;5055957;28;20434;-84
2022/11/09 06:32:50;;;;;;;15.83;12.80;;;11.30;99.90;;;;;;5045565;28;20448;-84
2022/11/09 06:35:17;;;;;;;13.93;12.53;;;11.30;99.90;;;;;;5034990;28;20830;-84
2022/11/09 06:37:45;;;;;;;15.63;11.83;;;11.30;99.90;;;;;;5034836;28;20485;-84
2022/11/09 06:40:13;;;;;;;16.40;11.93;;;11.30;99.90;;;;;;5034392;28;20868;-84
2022/11/09 06:42:40;;;;;;;12.93;11.57;;;11.30;99.90;;;;;;5034481;28;20446;-84
2022/11/09 06:45:08;;;;;;;14.43;11.57;;;11.30;99.90;;;;;;5035470;28;20536;-84
2022/11/09 06:47:34;;;;;;;14.10;11.30;;;11.30;99.90;;;;;;5042264;28;20446;-84
2022/11/09 06:50:01;;;;;;;14.17;12.57;;;11.30;99.90;;;;;;5048290;28;20445;-84
2022/11/09 06:52:28;;;;;;;18.53;12.10;;;11.30;99.90;;;;;;5050688;28;20465;-84
2022/11/09 06:54:56;;;;;;;14.27;11.00;;;11.40;99.90;;;;;;5040577;28;20446;-83
2022/11/09 06:57:22;;;;;;;10.80;9.23;;;11.40;99.90;;;;;;5034478;28;20488;-84
2022/11/09 06:59:49;;;;;;;15.13;9.70;;;11.50;99.90;;;;;;5035119;28;20472;-84
2022/11/09 07:02:17;;;;;;;10.80;8.47;;;11.50;99.90;;;;;;5034293;28;20455;-84
2022/11/09 07:04:44;;;;;;;10.90;9.80;;;11.50;99.90;;;;;;5040060;28;20800;-83
2022/11/09 07:07:11;;;;;;;12.87;10.53;;;11.50;99.90;;;;;;5048458;28;20441;-84
2022/11/09 07:09:38;;;;;;;11.30;9.93;;;11.50;99.90;;;;;;5054930;28;20470;-84
2022/11/09 07:12:07;;;;;;;13.10;11.67;;;11.50;99.90;;;;;;5050516;28;20477;-83
2022/11/09 07:14:33;;;;;;;9.60;8.77;;;11.60;99.90;;;;;;5038854;28;20453;-84
2022/11/09 07:17:00;;;;;;;12.20;11.03;;;11.60;99.90;;;;;;5037745;28;20492;-84
2022/11/09 07:19:28;;;;;;;13.57;11.60;;;11.60;99.90;;;;;;5037242;28;20462;-84
2022/11/09 07:21:55;;;;;;;11.47;10.27;;;11.60;99.90;;;;;;5036825;28;20450;-84
2022/11/09 07:24:22;;;;;;;11.83;10.43;;;11.70;99.90;;;;;;5036294;28;20457;-84
2022/11/09 07:26:49;;;;;;;16.47;11.03;;;11.80;99.90;;;;;;5036000;28;20446;-83
2022/11/09 07:29:17;;;;;;;12.20;11.00;;;11.80;99.90;;;;;;5035692;28;21013;-83
2022/11/09 07:31:43;;;;;;;12.40;10.33;;;11.80;99.90;;;;;;5035349;28;20476;-84
2022/11/09 07:34:10;;;;;;;16.83;11.37;;;11.80;99.90;;;;;;5035585;28;20450;-83
2022/11/09 07:36:37;;;;;;;15.70;12.20;;;11.80;99.90;;;;;;5043963;28;20465;-84
2022/11/09 07:39:04;;;;;;;12.97;10.93;;;11.90;99.90;;;;;;5057421;28;20460;-84
2022/11/09 07:41:31;;;;;;;16.63;11.60;;;11.90;99.90;;;;;;5057517;28;20422;-84
2022/11/09 07:43:58;;;;;;;12.63;11.37;;;11.90;99.90;;;;;;5049906;28;20459;-84
2022/11/09 07:46:26;;;;;;;15.47;12.30;;;11.90;99.90;;;;;;5052740;28;20761;-84
2022/11/09 07:48:53;;;;;;;15.33;12.90;;;11.90;99.90;;;;;;5057408;28;20476;-84
2022/11/09 07:51:19;;;;;;;17.50;12.40;;;11.90;99.90;;;;;;5057438;28;20440;-84
2022/11/09 07:53:46;;;;;;;16.83;12.33;;;11.90;99.90;;;;;;5051427;28;20446;-84
2022/11/09 07:56:13;;;;;;;15.63;12.20;;;11.90;99.90;;;;;;5035744;28;20445;-84
2022/11/09 07:58:40;;;;;;;14.50;12.87;;;12.00;99.90;;;;;;5016107;28;20477;-84
2022/11/09 08:01:08;;;;;;;13.57;11.67;;;12.00;99.90;;;;;;5041897;28;20445;-84
2022/11/09 08:03:36;;;;;;;14.77;12.40;;;12.00;99.90;;;;;;5034150;28;20445;-84
2022/11/09 08:06:03;;;;;;;13.17;11.13;;;11.90;99.90;;;;;;5038425;28;20445;-84
2022/11/09 08:08:30;;;;;;;12.27;10.97;;;12.10;99.90;;;;;;5037228;28;20477;-84
2022/11/09 08:10:58;;;;;;;13.30;10.27;;;12.10;99.90;;;;;;5035001;28;20450;-84
2022/11/09 08:13:25;;;;;;;12.87;11.50;;;12.10;99.90;;;;;;5034413;28;20899;-84
2022/11/09 08:15:52;;;;;;;13.30;12.00;;;12.10;99.90;;;;;;5035015;28;20532;-84
2022/11/09 08:18:20;;;;;;;12.33;10.50;;;12.20;99.90;;;;;;5036112;28;20986;-84
2022/11/09 08:20:49;;;;;;;15.63;13.17;;;12.20;99.90;;;;;;5046225;28;20471;-84
2022/11/09 08:23:17;;;;;;;15.60;12.27;;;12.20;99.90;;;;;;5050243;28;20442;-84
2022/11/09 08:25:44;;;;;;;15.70;11.10;;;12.30;99.90;;;;;;5037732;28;20449;-84
2022/11/09 08:28:11;;;;;;;15.87;12.03;;;12.30;99.90;;;;;;5035771;28;20832;-84
2022/11/09 08:30:38;;;;;;;13.60;10.93;;;12.40;99.90;;;;;;5034742;28;21018;-84
2022/11/09 08:33:05;;;;;;;13.70;11.20;;;12.40;99.90;;;;;;5035021;28;20462;-83
2022/11/09 08:35:33;;;;;;;12.03;9.70;;;12.50;99.90;;;;;;5033802;28;20825;-83
2022/11/09 08:38:04;;;;;;;12.57;9.63;;;12.50;99.90;;;;;;5035496;28;20489;-83
2022/11/09 08:40:31;;;;;;;10.33;8.40;;;12.60;99.90;;;;;;5039691;28;20836;-84
2022/11/09 08:43:02;;;;;;;12.80;7.73;;;12.60;99.90;;;;;;5037704;28;20442;-84
2022/11/09 08:45:31;;;;;;;11.47;8.37;;;12.70;99.90;;;;;;5035826;28;20441;-83
2022/11/09 08:47:58;;;;;;;8.13;7.43;;;12.70;99.90;;;;;;5035715;28;20470;-83
2022/11/09 08:50:25;;;;;;;8.77;7.57;;;12.70;99.90;;;;;;5034983;28;20503;-83
2022/11/09 08:52:52;;;;;;;8.43;7.53;;;12.80;99.90;;;;;;5036251;28;20449;-84
2022/11/09 08:55:21;;;;;;;10.03;8.50;;;12.80;99.90;;;;;;5036641;28;20454;-83
2022/11/09 08:57:48;;;;;;;9.07;8.07;;;12.80;99.90;;;;;;5036487;28;20486;-84
2022/11/09 09:00:16;;;;;;;17.13;8.93;;;12.80;99.90;;;;;;5035298;28;20457;-84
2022/11/09 09:02:42;;;;;;;11.23;7.60;;;12.90;99.90;;;;;;5035341;28;20455;-84
2022/11/09 09:05:09;;;;;;;9.73;8.10;;;12.90;99.90;;;;;;5035241;28;20456;-85
2022/11/09 09:07:36;;;;;;;12.70;7.70;;;13.00;99.90;;;;;;5032262;28;20943;-84
2022/11/09 09:10:04;;;;;;;12.50;7.60;;;12.90;99.90;;;;;;5032442;28;20517;-83
2022/11/09 09:12:32;;;;;;;8.63;6.80;;;12.90;99.90;;;;;;5036906;28;20468;-83
2022/11/09 09:14:58;;;;;;;6.90;6.10;;;12.90;99.90;;;;;;5038217;28;20958;-83
2022/11/09 09:17:25;;;;;;;7.10;6.20;;;12.90;99.90;;;;;;5037963;28;20481;-84
2022/11/09 09:19:52;;;;;;;8.60;7.43;;;12.90;99.90;;;;;;5043190;28;20449;-84
2022/11/09 09:22:19;;;;;;;14.60;7.30;;;12.90;99.90;;;;;;5052346;28;20442;-84
2022/11/09 09:24:45;;;;;;;6.73;5.60;;;12.90;99.90;;;;;;5053412;28;20529;-83
2022/11/09 09:27:12;;;;;;;9.37;6.77;;;13.00;99.90;;;;;;5051008;28;20444;-84
2022/11/09 09:29:41;;;;;;;7.30;6.07;;;13.00;99.90;;;;;;5057564;28;20460;-85
2022/11/09 09:32:07;;;;;;;8.30;7.00;;;13.00;99.90;;;;;;5048890;28;20536;-83
2022/11/09 09:34:34;;;;;;;8.10;6.43;;;13.10;99.90;;;;;;5040958;28;21006;-84
2022/11/09 09:37:01;;;;;;;8.60;7.57;;;13.20;99.90;;;;;;5040905;28;20477;-84
2022/11/09 09:39:28;;;;;;;11.10;8.27;;;13.20;99.90;;;;;;5045081;28;20479;-84
2022/11/09 09:41:56;;;;;;;12.17;8.33;;;13.40;99.90;;;;;;5047027;28;20462;-83
2022/11/09 09:44:29;;;;;;;7.47;6.63;;;13.40;99.90;;;;;;5045345;28;20452;-84
2022/11/09 09:47:05;;;;;;;10.00;7.70;;;13.50;99.90;;;;;;5039071;28;20492;-84
2022/11/09 09:49:36;;;;;;;12.17;6.90;;;13.60;99.90;;;;;;5039369;28;20469;-84
2022/11/09 09:52:11;;;;;;;8.13;7.30;;;13.80;99.90;;;;;;5039051;28;20770;-84
2022/11/09 09:54:42;;;;;;;7.23;6.33;;;13.90;99.90;;;;;;5038299;28;20457;-84
2022/11/09 09:57:16;;;;;;;9.40;6.40;;;14.00;99.90;;;;;;5039341;28;20492;-83
2022/11/09 09:59:48;;;;;;;6.30;5.70;;;14.10;99.90;;;;;;5040741;28;20452;-84
2022/11/09 10:02:23;;;;;;;6.80;5.50;;;14.20;99.90;;;;;;5039197;28;20456;-84
2022/11/09 10:04:50;;;;;;;5.30;4.57;;;14.40;99.90;;;;;;5041077;28;20448;-83
2022/11/09 10:07:24;;;;;;;8.10;4.73;;;14.40;99.90;;;;;;5038703;28;20442;-84
2022/11/09 10:10:09;;;;;;;7.30;4.70;;;14.50;99.90;;;;;;5041284;28;20469;-85
2022/11/09 10:12:47;;;;;;;7.50;4.90;;;14.50;99.90;;;;;;5056925;28;20530;-83
2022/11/09 10:15:21;;;;;;;6.70;4.60;;;14.50;99.90;;;;;;5047316;28;20445;-83
2022/11/09 10:18:04;;;;;;;7.50;5.47;;;14.60;99.90;;;;;;5036678;28;20484;-83
2022/11/09 10:20:44;;;;;;;4.63;4.13;;;14.70;99.90;;;;;;5036557;28;20442;-83
2022/11/09 10:23:35;;;;;;;8.23;4.10;;;14.90;99.90;;;;;;5047799;28;20453;-83
2022/11/09 10:26:03;;;;;;;3.67;2.80;;;14.90;99.90;;;;;;5051179;28;20441;-84
2022/11/09 10:28:32;;;;;;;8.40;3.93;;;15.00;99.90;;;;;;5047532;28;20465;-83
2022/11/09 10:31:01;;;;;;;4.13;3.73;;;14.90;99.90;;;;;;5040214;28;20450;-84
2022/11/09 10:33:30;;;;;;;4.00;3.27;;;15.00;99.90;;;;;;5039786;28;20931;-84
2022/11/09 10:36:06;;;;;;;7.00;3.10;;;15.10;99.90;;;;;;5040560;28;20452;-84
2022/11/09 10:38:40;;;;;;;4.77;3.60;;;15.30;99.90;;;;;;5039695;28;20489;-83
2022/11/09 10:41:22;;;;;;;6.70;4.20;;;15.60;99.90;;;;;;5040526;28;20962;-84
2022/11/09 10:43:49;;;;;;;4.37;3.33;;;16.00;99.90;;;;;;5039630;28;20450;-84
2022/11/09 10:46:16;;;;;;;2.80;2.40;;;16.40;99.90;;;;;;5040446;28;20841;-85
2022/11/09 10:48:44;;;;;;;4.60;2.80;;;16.60;99.90;;;;;;5038251;28;20501;-85
2022/11/09 10:51:32;;;;;;;3.47;3.17;;;17.00;99.90;;;;;;5038118;28;20446;-85
2022/11/09 10:54:15;;;;;;;5.53;3.00;;;16.90;99.90;;;;;;5040644;28;20453;-84
2022/11/09 10:56:46;;;;;;;3.50;2.80;;;16.70;99.90;;;;;;5036733;28;20457;-83
2022/11/09 10:59:45;;;;;;;3.77;2.80;;;16.60;99.90;;;;;;5038232;28;20496;-83
2022/11/09 11:02:40;;;;;;;3.67;2.60;;;16.50;99.90;;;;;;4977242;28;20454;-84
2022/11/09 11:05:27;;;;;;;4.20;3.80;;;16.40;99.90;;;;;;5034698;28;20459;-83
2022/11/09 11:07:54;;;;;;;7.50;3.30;;;16.30;99.90;;;;;;5046970;28;20461;-83
2022/11/09 11:10:22;;;;;;;5.23;4.10;;;16.30;99.90;;;;;;5037819;28;20959;-83
2022/11/09 11:12:57;;;;;;;6.00;3.47;;;16.20;99.90;;;;;;5037493;28;20953;-83
2022/11/09 11:15:29;;;;;;;5.30;4.00;;;16.30;99.90;;;;;;5036773;28;20449;-84
2022/11/09 11:18:01;;;;;;;6.33;3.20;;;16.30;99.90;;;;;;5035680;28;20482;-84
2022/11/09 11:20:33;;;;;;;4.50;3.30;;;16.40;99.90;;;;;;5036268;28;20438;-84
2022/11/09 11:23:11;;;;;;;4.47;3.37;;;16.60;99.90;;;;;;5033161;28;20446;-83
2022/11/09 11:25:58;;;;;;;3.43;3.13;;;16.70;99.90;;;;;;5033364;28;20451;-84
2022/11/09 11:28:33;;;;;;;4.33;3.60;;;16.90;99.90;;;;;;5036018;28;20509;-84
2022/11/09 11:31:00;;;;;;;3.20;2.90;;;17.00;99.90;;;;;;5035473;28;20476;-83
2022/11/09 11:33:28;;;;;;;4.40;2.90;;;17.10;99.90;;;;;;5035324;28;20450;-83
2022/11/09 11:36:01;;;;;;;3.83;3.10;;;17.20;99.90;;;;;;5036568;28;20472;-83
2022/11/09 11:38:34;;;;;;;3.97;3.30;;;17.30;99.90;;;;;;5037475;28;20487;-84
2022/11/09 11:41:09;;;;;;;3.83;3.50;;;17.10;99.90;;;;;;5036690;28;20484;-84
2022/11/09 11:43:46;;;;;;;4.20;3.30;;;16.90;99.90;;;;;;5037405;28;20445;-84
2022/11/09 11:46:22;;;;;;;3.43;3.10;;;16.80;99.90;;;;;;5036964;28;20445;-84
2022/11/09 11:49:32;;;;;;;3.50;3.20;;;16.80;99.90;;;;;;5036120;28;20461;-84
2022/11/09 11:52:10;;;;;;;4.50;3.33;;;16.60;99.90;;;;;;5029184;28;20457;-84
2022/11/09 11:54:46;;;;;;;3.97;3.20;;;16.50;99.90;;;;;;5043509;28;20442;-83
2022/11/09 11:57:21;;;;;;;5.17;3.73;;;16.50;99.90;;;;;;5056229;28;20460;-84
2022/11/09 12:00:10;;;;;;;3.67;2.90;;;16.50;99.90;;;;;;5049822;28;20456;-84
2022/11/09 12:03:10;;;;;;;6.10;3.10;;;16.70;99.90;;;;;;5032730;28;20512;-84
2022/11/09 12:06:02;;;;;;;5.47;3.57;;;16.70;99.90;;;;;;5045236;28;20449;-84
2022/11/09 12:08:43;;;;;;;4.17;3.77;;;16.80;99.90;;;;;;5054251;28;20517;-83
2022/11/09 12:11:19;;;;;;;5.03;3.70;;;16.80;99.90;;;;;;5037614;28;20452;-83
2022/11/09 12:13:59;;;;;;;5.57;3.23;;;16.90;99.90;;;;;;5036646;28;20854;-83
2022/11/09 12:16:33;;;;;;;8.07;4.33;;;17.00;99.90;;;;;;5035657;28;20468;-83
2022/11/09 12:19:17;;;;;;;5.90;3.60;;;17.10;99.90;;;;;;5036375;28;21015;-83
2022/11/09 12:21:51;;;;;;;5.60;3.30;;;17.10;99.90;;;;;;5036875;28;20453;-84
2022/11/09 12:24:27;;;;;;;4.60;3.70;;;17.10;99.90;;;;;;5037312;28;20448;-84
2022/11/09 12:27:09;;;;;;;3.57;3.27;;;17.10;99.90;;;;;;5044051;28;20449;-84
2022/11/09 12:29:45;;;;;;;10.07;3.57;;;17.10;99.90;;;;;;5078243;22;20546;-83
2022/11/09 12:32:21;;;;;;;4.10;3.33;;;17.20;99.90;;;;;;5074234;28;20452;-85
2022/11/09 12:34:56;;;;;;;4.70;3.10;;;17.10;99.90;;;;;;5087436;28;20444;-84
2022/11/09 12:37:27;;;;;;;5.43;3.03;;;17.00;99.90;;;;;;5079727;28;20475;-84
2022/11/09 12:39:58;;;;;;;3.10;2.60;;;17.00;99.90;;;;;;5078577;28;20505;-85
2022/11/09 12:42:31;;;;;;;3.20;2.67;;;17.00;99.90;;;;;;5079186;28;20447;-83
2022/11/09 12:45:04;;;;;;;3.27;2.80;;;17.00;99.90;;;;;;5077925;28;20520;-85
2022/11/09 12:47:36;;;;;;;3.60;3.10;;;17.10;99.90;;;;;;5078826;28;20964;-83
2022/11/09 12:50:04;;;;;;;11.60;3.67;;;17.10;99.90;;;;;;5077511;28;20633;-85
2022/11/09 12:52:31;;;;;;;3.37;2.80;;;17.10;99.90;;;;;;5077185;28;20440;-84
2022/11/09 12:55:04;;;;;;;4.70;3.40;;;17.30;99.90;;;;;;5078483;28;20453;-84
2022/11/09 12:57:32;;;;;;;3.30;2.37;;;17.40;99.90;;;;;;5076568;28;20448;-84
2022/11/09 13:00:00;;;;;;;3.20;2.30;;;17.30;99.90;;;;;;5079552;28;20561;-84
2022/11/09 13:02:33;;;;;;;5.50;3.63;;;17.20;99.90;;;;;;5081046;28;20460;-85
2022/11/09 13:05:01;;;;;;;4.50;2.83;;;17.40;99.90;;;;;;5080212;28;20429;-85
2022/11/09 13:07:53;;;;;;;3.53;2.57;;;17.40;99.90;;;;;;5079763;28;20447;-85
2022/11/09 13:10:31;;;;;;;4.87;3.30;;;17.40;99.90;;;;;;5074638;28;20455;-85
2022/11/09 13:13:19;;;;;;;5.53;2.77;;;17.50;99.90;;;;;;5080617;28;20449;-84
2022/11/09 13:16:05;;;;;;;4.60;3.77;;;17.50;99.90;;;;;;5080825;28;20454;-86
2022/11/09 13:18:50;;;;;;;2.90;2.60;;;17.50;99.90;;;;;;5082435;28;21074;-86
2022/11/09 13:21:39;;;;;;;5.73;3.50;;;17.60;99.90;;;;;;5095898;28;20430;-86
2022/11/09 13:24:52;;;;;;;6.07;3.23;;;17.50;99.90;;;;;;5100569;28;20436;-88
2022/11/09 13:27:39;;;;;;;6.00;4.07;;;17.40;99.90;;;;;;5100289;28;20446;-87
2022/11/09 13:30:37;;;;;;;5.13;3.20;;;17.40;99.90;;;;;;5085279;28;20449;-84
2022/11/09 13:33:19;;;;;;;5.10;4.53;;;17.30;99.90;;;;;;5081195;28;20443;-85